Tous les Résultats et les Classements des Compétitions E.S.F.

 ESF ALPE D'HUEZ (L') : Flèche du 19/01/2018  

FLECHE ALPE D'HUEZ CUP ANNEE 2006 1er MANCHE 19/01/2018

 Epreuve validée par le service technique du S.N.M.S.F.

Ouvreur Handicap Temps Réalisé Temps Base
BOULLOUD-DUCOLOMBIER ROBIN 6.00 53.65 50.61
Médaille Or Vermeil Argent Bronze Fléchette
Pourcentage 15.00% 28.00% 40.00% 45.00% 50.00%
Temps 58.20 1:04.78 1:10.85 1:15.91 1:18.44
Clt.   Identité Code S. An Cat Temps Pts Médaille
1 HUOT MARCHAND NASH FFS2677528 M 2006 POU 56.91 12.45 Or
2 MEYRIEUX DREVET NANS FFS2676461 M 2006 POU 57.25 13.12 Or
3 REY THIMOTHEE FFS2671595 M 2006 POU 57.35 13.32 Or
4 TROUART JULES FFS2676518 M 2006 POU 57.39 13.40 Or
5 KALINA DE TESSIERES SIXTINE FFS2678195 F 2006 POU 57.52 13.65 Or
6 FLAMAND PAUL FFS2673104 M 2006 POU 58.09 14.78 Or
7 FAURE GIGNOUX BASTIEN FFS2670769 M 2006 POU 58.22 15.04 Vermeil
8 VIAL NOE FFS2667239 M 2006 POU 58.36 15.31 Vermeil
9 SCHANDENE ANDY FFS2666238 M 2006 POU 58.37 15.33 Vermeil
10 DELHALLE JULES FFS2672861 M 2006 POU 58.55 15.69 Vermeil
11 OLLIVIER KIM FFS2677792 F 2006 POU 58.70 15.98 Vermeil
12 LLORACH LEO FFS2678991 M 2006 POU 58.79 16.16 Vermeil
13 BEALLET NIKITA FFS2676034 F 2006 POU 58.85 16.28 Vermeil
14 PAYARD MARINE FFS2682572 F 2006 POU 59.27 17.11 Vermeil
15 GARDE DORIAN FFS2678545 M 2006 POU 59.32 17.21 Vermeil
16 garcin charlie FFS2678548 M 2006 POU 59.76 18.08 Vermeil
17 LUPPINO ARTHUR FFS2674187 M 2006 POU 1:00.10 18.75 Vermeil
18 ARANEGA HUGO FFS2676295 M 2006 POU 1:00.17 18.89 Vermeil
19 LEGELEUX MATHIEU FFS2681029 M 2006 POU 1:00.53 19.60 Vermeil
20 BRUNEL MAXINE FFS2672653 F 2006 POU 1:00.56 19.66 Vermeil
21 CAUDAN EVAN FFS2667815 M 2006 POU 1:00.74 20.02 Vermeil
22 PINCEMIN JULIE FFS2669397 F 2006 POU 1:00.77 20.08 Vermeil
23 WEBER LOUIS FFS2680453 M 2006 POU 1:01.22 20.96 Vermeil
24 COLLOMB CLERC ETHAN FFS2675572 M 2006 POU 1:01.25 21.02 Vermeil
25 LAMBERSEND MAXENCE FFS2676803 M 2006 POU 1:01.31 21.14 Vermeil
26 TARDELLI FRANCESCO FFS2672361 M 2006 POU 1:01.39 21.30 Vermeil
27 PELISSARD EVAN FFS2667850 M 2006 POU 1:01.50 21.52 Vermeil
28 MELONI FRANCOIS FFS2666605 M 2006 POU 1:01.51 21.54 Vermeil
28 PELTIER MARTIN FFS2676805 M 2006 POU 1:01.51 21.54 Vermeil
30 POINTDAVOINE ROMAIN FFS2678546 M 2006 POU 1:01.64 21.79 Vermeil
31 PERRIER MICHON LILY FFS2678197 F 2006 POU 1:02.16 22.82 Vermeil
32 NICOT FLORA FFS2678531 F 2006 POU 1:02.47 23.43 Vermeil
33 PELLET FAOLAN FFS2663730 M 2006 POU 1:02.48 23.45 Vermeil
34 MERLIN ELOISE FFS2666352 F 2006 POU 1:02.68 23.85 Vermeil
35 METRICH BLAISE FFS2677797 M 2006 POU 1:03.11 24.70 Vermeil
36 RANCHIN ELIAN FFS2677955 M 2006 POU 1:03.19 24.86 Vermeil
37 DOEUVRE MATEO FFS2686999 M 2006 POU 1:03.24 24.96 Vermeil
38 FERRAND AUGUSTE FFS2667033 M 2006 POU 1:03.48 25.43 Vermeil
39 MERLIN MAHOT CLEMENT FFS2678916 M 2006 POU 1:03.57 25.61 Vermeil
40 GAILLY NOE FFS2675573 M 2006 POU 1:03.65 25.77 Vermeil
41 RIONDET GASPARD FFS2676464 M 2006 POU 1:03.85 26.16 Vermeil
42 PASCAL TITOUAN FFS2682862 M 2006 POU 1:04.09 26.64 Vermeil
43 JULIEN EMMA FFS2679757 F 2006 POU 1:04.10 26.65 Vermeil
44 MANDON ALEXIS FFS2676459 M 2006 POU 1:04.16 26.77 Vermeil
45 LARUE JOAN FFS2689151 M 2006 POU 1:04.89 28.22 Argent
46 MATRAY MAXIME FFS2671014 M 2006 POU 1:04.95 28.33 Argent
47 KABWE CHARLES FFS2673103 M 2006 POU 1:05.18 28.79 Argent
48 LAVAL ANTOINE FFS2677904 M 2006 POU 1:05.37 29.16 Argent
49 LAGARDE LUKE FFS2676438 M 2006 POU 1:05.82 30.05 Argent
50 MIR EVA FFS2672751 F 2006 POU 1:06.26 30.92 Argent
51 JULLIEN NICOLAS FFS2672364 M 2006 POU 1:06.93 32.25 Argent
52 MATHON DORIAN FFS2683111 M 2006 POU 1:07.16 32.70 Argent
53 ROGERSON RUARIDH FFS2691641 M 2006 POU 1:07.29 32.96 Argent
54 DECROO TIJANI FFS2676370 M 2006 POU 1:08.08 34.52 Argent
55 PECH CHARLOTTE FFS2667329 F 2006 POU 1:08.63 35.61 Argent
56 RONZON LILIAN FFS2687251 M 2006 POU 1:09.96 38.23 Argent
57 BARRAL BARON LOUIS FFS2684639 M 2006 POU 1:10.19 38.69 Argent
58 BUTEAU JADE FFS2686736 F 2006 POU 1:10.52 39.34 Argent
59 ECHANTILLON REMI FFS2681753 M 2006 POU 1:10.80 39.89 Argent
60 BRUN ALAIS FFS2691952 F 2006 POU 1:11.26 40.80 Bronze
61 EMMANUELLI LENA FFS2685284 F 2006 POU 1:13.41 45.05 Bronze
62 GAUTHIER MARINE FFS2674235 F 2006 POU 1:14.17 46.55 Bronze
63 BEDOUET THEO FFS2678189 M 2006 POU 1:15.30 48.78 Bronze
64 REMBAUD TIMOTHE FFS2687261 M 2006 POU 1:15.41 49.00 Bronze
65 ZANARDI NOE FFS2681757 M 2006 POU 1:15.90 49.97 Bronze
66 TARDY COME FFS2694046 M 2006 POU 1:17.50 53.13 Fléchette
67 DUMAS ELINE FFS2691797 F 2006 POU 1:18.45 55.01
68 RIU NATHAN FFS2667584 M 2006 POU 1:21.27 60.58
69 SOLINAS ILAN FFS2694203 M 2006 POU 1:22.63 63.27
70 GEOFFROY TOM FFS2688709 M 2006 POU 1:25.98 69.89
CABART CILIEN FFS2676136 M 2006 POU ABD
FINO FLORIAN FFS2672369 M 2006 POU ABD
COMBEAU ROMANE FFS2677798 F 2006 POU ABD
DESSIMOND LEONARD FFS2678967 M 2006 POU ABD
ANNE GABRIEL FFS2691736 M 2006 POU ABD
COLOMBERO OSCAR FFS2678343 M 2006 POU ABD
DUVAL JEANNE FFS2676592 F 2006 POU ABD
LLABRES NATHANAEL FFS2691335 M 2006 POU ABD
CARPIGNANO RAPHAEL FFS2670768 M 2006 POU ABD
HERODIN THEOLE FFS2685454 M 2006 POU ABD
JUAN ELSA FFS2672373 F 2006 POU ABD
MENNECIER CHARLY FFS2678249 M 2006 POU ABD
BUCK CAMILLE FFS2679813 F 2006 POU ABD
TALBOT HEROUARD SAMAEL FFS2672191 M 2006 POU ABD
INFANTE MOIRA FFS2680736 F 2006 POU ABD
CUSSET HENRI FFS2671016 M 2006 POU DSQ
BRINSTER AURELE FFS2681759 M 2006 POU DSQ
FAUCHE SEBASTIEN FFS2690008 M 2006 POU DSQ
COMBES GABIN FFS2672366 M 2006 POU ABS
RIOLS COUTE Loula FFS2687486 F 2006 POU ABS
EYMERY LOUISON FFS2686998 M 2006 POU ABS
LECOMTE MAYA FFS2679393 F 2006 POU ABS